Flight Track Log - Related Links

Times and Time Zones

All times are in EDT time to prevent confusion due to time zone crossing. See the CHH7071 flight status page for this flight to view local times or setup timezone preferences in your user account.

Time Position Orientation Groundspeed Altitude Reporting Facility
EDT Latitude Longitude Course Direction KTS MPH feet Rate Location/Type
Wed 04:32:00 AM 20.0409 110.5189 28° Northeast  Level Estimated
Wed 04:33:00 AM 20.1470 110.5788 28° Northeast  Level Estimated
Wed 04:34:00 AM 20.2530 110.6389 28° Northeast  Level Estimated
Wed 04:35:00 AM 20.3591 110.6990 28° Northeast  Level Estimated
Wed 04:36:00 AM 20.4650 110.7592 28° Northeast  Level Estimated
Wed 04:37:00 AM 20.5710 110.8195 28° Northeast  Level Estimated
Wed 04:38:00 AM 20.6770 110.8799 28° Northeast  Level Estimated
Wed 04:39:00 AM 20.7829 110.9404 28° Northeast  Level Estimated
Wed 04:40:00 AM 20.8888 111.0009 28° Northeast  Level Estimated
Wed 04:41:00 AM 20.9947 111.0616 28° Northeast  Level Estimated
Wed 04:42:00 AM 21.1006 111.1223 28° Northeast  Level Estimated
Wed 04:43:00 AM 21.2064 111.1831 28° Northeast  Level Estimated
Wed 04:44:00 AM 21.3123 111.2440 28° Northeast  Level Estimated
Wed 04:45:00 AM 21.4181 111.3050 28° Northeast  Level Estimated
Wed 04:46:00 AM 21.5238 111.3661 28° Northeast  Level Estimated
Wed 04:47:00 AM 21.6296 111.4272 28° Northeast  Level Estimated
Wed 04:48:00 AM 21.7353 111.4885 28° Northeast  Level Estimated
Wed 04:49:00 AM 21.8410 111.5498 28° Northeast  Level Estimated
Wed 04:49:51 AM 22.8290 112.2150 28° Northeast 465 535 35,100  Level FlightAware ADS-B
Wed 04:50:00 AM 21.9467 111.6113 28° Northeast  Level Estimated
Wed 04:50:27 AM 22.8820 112.2750 46° Northeast 466 536 35,100  Level FlightAware ADS-B
Wed 04:51:01 AM 22.9330 112.3320 46° Northeast 466 536 35,100  Level FlightAware ADS-B
Wed 04:51:35 AM 22.9840 112.3900 46° Northeast 466 536 35,100  Level FlightAware ADS-B
Wed 04:52:09 AM 23.0350 112.4470 46° Northeast 467 537 35,100  Level FlightAware ADS-B
Wed 04:52:26 AM 23.0550 112.4790 56° Northeast 463 533 35,100  Level FlightAware ADS-B
Wed 04:52:39 AM 23.0630 112.5050 72° East 460 529 35,100  Level FlightAware ADS-B
Wed 04:52:51 AM 23.0660 112.5370 84° East 456 525 35,100  Level FlightAware ADS-B
Wed 04:53:29 AM 23.0610 112.6220 94° East 455 524 35,100  Level FlightAware ADS-B
Wed 04:54:05 AM 23.0560 112.7010 94° East 455 524 35,100  Level FlightAware ADS-B
Wed 04:54:41 AM 23.0500 112.7840 94° East 456 525 35,100  Level FlightAware ADS-B
Wed 04:55:13 AM 23.0450 112.8600 94° East 456 525 35,100  Level FlightAware ADS-B
Wed 04:55:49 AM 23.0390 112.9400 95° East 456 525 35,100  Level FlightAware ADS-B
Wed 04:56:25 AM 23.0330 113.0250 94° East 456 525 35,100  Level FlightAware ADS-B
Wed 04:57:01 AM 23.0280 113.1050 94° East 457 526 35,100  Level FlightAware ADS-B
Wed 04:57:33 AM 23.0230 113.1790 94° East 459 528 35,100  Level FlightAware ADS-B
Wed 04:58:09 AM 23.0290 113.2610 85° East 462 532 35,100  Level FlightAware ADS-B
Wed 04:58:45 AM 23.0380 113.3450 83° East 463 533 35,100  Level FlightAware ADS-B
Wed 04:59:21 AM 23.0470 113.4260 83° East 463 533 35,100  Level FlightAware ADS-B
Wed 04:59:57 AM 23.0560 113.5100 83° East 463 533 35,100  Level FlightAware ADS-B
Wed 05:00:28 AM 23.0630 113.5810 84° East 463 533 35,100  Level FlightAware ADS-B
Wed 05:01:05 AM 23.0730 113.6670 83° East 464 534 35,100  Level FlightAware ADS-B
Wed 05:01:41 AM 23.0810 113.7510 84° East 463 533 35,100  Level FlightAware ADS-B
Wed 05:02:17 AM 23.0960 113.8330 79° East 467 537 35,100  Level FlightAware ADS-B
Wed 05:02:29 AM 23.1090 113.8580 61° Northeast 469 540 35,100  Level FlightAware ADS-B
Wed 05:02:45 AM 23.1330 113.8850 46° Northeast 470 541 35,100  Level FlightAware ADS-B
Wed 05:03:17 AM 23.1880 113.9320 38° Northeast 470 541 35,100  Level FlightAware ADS-B
Wed 05:03:51 AM 23.2450 113.9810 38° Northeast 470 541 35,100  Level FlightAware ADS-B
Wed 05:04:29 AM 23.3100 114.0360 38° Northeast 470 541 35,100  Level FlightAware ADS-B
Wed 05:05:01 AM 23.3660 114.0840 38° Northeast 469 540 35,100  Level FlightAware ADS-B
Wed 05:05:39 AM 23.4300 114.1390 38° Northeast 470 541 35,100  Level FlightAware ADS-B
Wed 05:06:15 AM 23.4890 114.1900 38° Northeast 470 541 35,100  Level FlightAware ADS-B
Wed 05:06:47 AM 23.5470 114.2390 38° Northeast 470 541 35,100  Level FlightAware ADS-B
Wed 05:07:23 AM 23.6080 114.2910 38° Northeast 471 542 35,100  Level FlightAware ADS-B
Wed 05:07:51 AM 23.6520 114.3390 45° Northeast 470 541 35,100  Level FlightAware ADS-B
Wed 05:08:26 AM 23.6960 114.4030 53° Northeast 471 542 35,100  Level FlightAware ADS-B
Wed 05:09:00 AM 23.7420 114.4650 51° Northeast 473 544 35,100  Level FlightAware ADS-B
Wed 05:09:35 AM 23.8020 114.5220 41° Northeast 474 545 35,100  Level FlightAware ADS-B
Wed 05:10:08 AM 23.8590 114.5690 37° Northeast 476 548 35,100  Level FlightAware ADS-B
Wed 05:10:43 AM 23.9230 114.6210 37° Northeast 477 549 35,100  Level FlightAware ADS-B
Wed 05:11:27 AM 23.9970 114.6820 37° Northeast 478 550 35,100  Level FlightAware ADS-B
Wed 05:12:01 AM 24.0600 114.7340 37° Northeast 478 550 35,100  Level FlightAware ADS-B
Wed 05:12:39 AM 24.1260 114.7880 37° Northeast 479 551 35,100  Level FlightAware ADS-B
Wed 05:13:33 AM 24.2080 114.8560 37° Northeast 477 549 35,100  Level FlightAware ADS-B
Wed 05:14:09 AM 24.2620 114.9010 37° Northeast 477 549 35,100  Level FlightAware ADS-B
Wed 05:14:45 AM 24.3160 114.9450 37° Northeast 477 549 35,100  Level FlightAware ADS-B
Wed 05:14:59 AM 24.4010 114.9350 354° North 472 543 35,100  Level FlightAware ADS-B
Wed 05:15:37 AM 24.4710 114.9520 12° North 472 543 35,100 -618 Level FlightAware ADS-B
Wed 05:16:07 AM 24.5370 114.9680 12° North 466 536 34,400 -592 Descending FlightAware ADS-B
Wed 05:16:48 AM 24.6100 114.9860 13° North 466 536 34,400  Level FlightAware ADS-B
Wed 05:17:24 AM 24.6750 115.0010 12° North 466 536 34,400  Level FlightAware ADS-B
Wed 05:18:01 AM 24.7410 115.0160 12° North 466 536 34,400  Level FlightAware ADS-B
Wed 05:18:35 AM 24.8020 115.0300 12° North 466 536 34,400  Level FlightAware ADS-B
Wed 05:19:11 AM 24.8670 115.0460 13° North 466 536 34,400  Level FlightAware ADS-B
Wed 05:19:47 AM 24.9310 115.0610 12° North 466 536 34,400  Level FlightAware ADS-B
Wed 05:20:21 AM 24.9920 115.0750 12° North 466 536 34,400  Level FlightAware ADS-B
Wed 05:20:57 AM 25.0570 115.0900 12° North 466 536 34,400  Level FlightAware ADS-B
Wed 05:21:34 AM 25.1230 115.1060 12° North 466 536 34,400  Level FlightAware ADS-B
Wed 05:22:10 AM 25.1870 115.1210 12° North 466 536 34,400  Level FlightAware ADS-B
Wed 05:22:46 AM 25.2520 115.1360 12° North 466 536 34,400  Level FlightAware ADS-B
Wed 05:23:22 AM 25.3160 115.1510 12° North 466 536 34,400  Level FlightAware ADS-B
Wed 05:23:58 AM 25.3810 115.1660 12° North 466 536 34,400  Level FlightAware ADS-B
Wed 05:24:35 AM 25.4470 115.1820 12° North 466 536 34,400  Level FlightAware ADS-B
Wed 05:25:11 AM 25.5120 115.1970 12° North 466 536 34,400  Level FlightAware ADS-B
Wed 05:25:47 AM 25.5760 115.2120 12° North 466 536 34,400  Level FlightAware ADS-B
Wed 05:28:00 AM 25.8378 115.2653 10° North  Level Estimated
Wed 05:29:00 AM 25.9559 115.2894 10° North  Level Estimated
Wed 05:30:00 AM 26.0740 115.3136 10° North  Level Estimated
Wed 05:31:00 AM 26.1921 115.3378 10° North  Level Estimated
Wed 05:32:00 AM 26.3102 115.3621 10° North  Level Estimated
Wed 05:33:00 AM 26.4283 115.3864 10° North  Level Estimated
Wed 05:34:00 AM 26.5464 115.4108 10° North  Level Estimated
Wed 05:35:00 AM 26.6645 115.4352 10° North  Level Estimated
Wed 05:36:00 AM 26.7826 115.4597 10° North  Level Estimated
Wed 05:37:00 AM 26.9006 115.4842 10° North  Level Estimated
Wed 05:38:00 AM 27.0187 115.5088 11° North  Level Estimated
Wed 05:39:00 AM 27.1368 115.5334 11° North  Level Estimated
Wed 05:40:00 AM 27.2548 115.5580 11° North  Level Estimated
Wed 05:41:00 AM 27.3729 115.5828 11° North  Level Estimated
Wed 05:42:00 AM 27.4909 115.6075 11° North  Level Estimated
Wed 05:43:00 AM 27.6090 115.6324 11° North  Level Estimated
Wed 05:44:00 AM 27.7270 115.6572 11° North  Level Estimated
Wed 05:45:00 AM 27.8451 115.6822 11° North  Level Estimated
Wed 05:46:00 AM 27.9631 115.7072 11° North  Level Estimated
Wed 05:47:00 AM 28.0812 115.7322 11° North  Level Estimated
Wed 05:48:00 AM 28.1992 115.7573 11° North  Level Estimated
Wed 05:49:00 AM 28.3172 115.7825 11° North  Level Estimated
Wed 05:50:00 AM 28.4352 115.8077 11° North  Level Estimated
Wed 05:51:00 AM 28.5532 115.8330 11° North  Level Estimated
Wed 05:52:00 AM 28.6712 115.8583 11° North  Level Estimated
Wed 05:53:00 AM 28.7892 115.8837 11° North  Level Estimated
Wed 05:54:00 AM 28.8650 115.9000 11° North  Level Estimated
Wed 05:55:00 AM 28.8650 115.9000 North  Level Estimated
Wed 05:56:00 AM 28.8650 115.9000 North  Level Estimated
Wed 05:57:00 AM 28.8650 115.9000 North  Level Estimated
Wed 05:58:00 AM 28.8650 115.9000 North  Level Estimated
Wed 05:59:00 AM 28.8650 115.9000 North  Level Estimated
Wed 06:00:00 AM 28.8650 115.9000 North  Level Estimated
Wed 06:01:00 AM 28.8650 115.9000 North  Level Estimated
Wed 06:02:00 AM 28.8650 115.9000 North  Level Estimated
Wed 06:03:00 AM 28.8650 115.9000 North  Level Estimated
Wed 06:04:00 AM 28.8650 115.9000 North  Level Estimated
Wed 06:05:00 AM 28.8650 115.9000 North  Level Estimated
Wed 06:06:00 AM 28.8650 115.9000 North  Level Estimated
Wed 06:07:00 AM 28.8650 115.9000 North  Level Estimated
Wed 06:08:00 AM 28.8650 115.9000 North  Level Estimated
Wed 06:09:00 AM 28.8650 115.9000 North  Level Estimated
Wed 06:10:00 AM 28.8650 115.9000 North  Level Estimated
Wed 06:11:00 AM 28.8650 115.9000 North  Level Estimated
Wed 06:12:00 AM 28.8650 115.9000 North  Level Estimated

Login

Don't have an account? Register now (free) for customized features, flight alerts, and more!